createdAt,value
2023-01-23T00:00:32.916Z,0
2023-01-23T00:01:36.530Z,0
2023-01-23T00:02:40.398Z,0
2023-01-23T00:03:44.466Z,0
2023-01-23T00:04:47.749Z,0
2023-01-23T00:05:51.491Z,0
2023-01-23T00:06:54.879Z,0
2023-01-23T00:07:57.175Z,0
2023-01-23T00:09:00.274Z,0
2023-01-23T00:10:04.162Z,0
2023-01-23T00:11:07.775Z,0
2023-01-23T00:12:11.045Z,0
2023-01-23T00:13:15.054Z,0
2023-01-23T00:14:19.011Z,0
2023-01-23T00:15:22.798Z,0
2023-01-23T00:16:26.193Z,0
2023-01-23T00:17:30.125Z,0
2023-01-23T00:18:33.605Z,0
2023-01-23T00:19:36.343Z,0
2023-01-23T00:20:38.820Z,0
2023-01-23T00:21:41.896Z,0
2023-01-23T00:22:44.991Z,0
2023-01-23T00:23:47.989Z,0
2023-01-23T00:24:51.109Z,0
2023-01-23T00:25:54.151Z,0
2023-01-23T00:26:56.358Z,0
2023-01-23T00:27:59.522Z,0
2023-01-23T00:29:03.216Z,0
2023-01-23T00:30:06.407Z,0
2023-01-23T00:31:10.372Z,0
2023-01-23T00:32:14.596Z,0
2023-01-23T00:33:17.925Z,0
2023-01-23T00:34:20.924Z,0
2023-01-23T00:35:23.680Z,0
2023-01-23T00:36:27.317Z,0
2023-01-23T00:37:29.465Z,0
2023-01-23T00:38:33.219Z,0
2023-01-23T00:39:36.257Z,0
2023-01-23T00:40:40.004Z,0
2023-01-23T00:41:43.681Z,0
2023-01-23T00:42:46.778Z,0
2023-01-23T00:43:50.166Z,0
2023-01-23T00:44:54.168Z,0
2023-01-23T00:45:57.287Z,0
2023-01-23T00:47:00.824Z,0
2023-01-23T00:48:04.975Z,0
2023-01-23T00:49:08.586Z,0
2023-01-23T00:50:10.867Z,0
2023-01-23T00:51:14.321Z,0
2023-01-23T00:52:18.491Z,0
2023-01-23T00:53:21.250Z,0
2023-01-23T00:54:24.966Z,0
2023-01-23T00:55:27.985Z,0
2023-01-23T00:56:30.858Z,0
2023-01-23T00:57:33.861Z,0
2023-01-23T00:58:36.582Z,0
2023-01-23T00:59:39.318Z,0
2023-01-23T01:00:43.346Z,0
2023-01-23T01:01:46.711Z,0
2023-01-23T01:02:50.371Z,0
2023-01-23T01:03:54.306Z,0
2023-01-23T01:04:57.984Z,0
2023-01-23T01:06:01.807Z,0
2023-01-23T01:07:04.529Z,0
2023-01-23T01:08:07.741Z,0
2023-01-23T01:09:11.096Z,0
2023-01-23T01:10:13.811Z,0
2023-01-23T01:11:16.627Z,0
2023-01-23T01:12:19.773Z,0
2023-01-23T01:13:23.008Z,0
2023-01-23T01:14:26.025Z,0
2023-01-23T01:15:29.101Z,0
2023-01-23T01:16:33.164Z,0
2023-01-23T01:17:37.677Z,0
2023-01-23T01:18:40.889Z,0
2023-01-23T01:19:44.044Z,0
2023-01-23T01:20:47.243Z,0
2023-01-23T01:21:49.766Z,0
2023-01-23T01:22:52.839Z,0
2023-01-23T01:23:55.944Z,0
2023-01-23T01:24:58.678Z,0
2023-01-23T01:26:01.715Z,0
2023-01-23T01:27:04.860Z,0
2023-01-23T01:28:07.915Z,0
2023-01-23T01:29:10.904Z,0
2023-01-23T01:30:14.985Z,0
2023-01-23T01:31:19.945Z,0
2023-01-23T01:32:24.539Z,0
2023-01-23T01:33:28.092Z,0
2023-01-23T01:34:31.600Z,0
2023-01-23T01:35:34.569Z,0
2023-01-23T01:36:38.200Z,0
2023-01-23T01:37:41.287Z,0
2023-01-23T01:38:44.068Z,0
2023-01-23T01:39:47.448Z,0
2023-01-23T01:40:50.900Z,0
2023-01-23T01:41:53.759Z,0
2023-01-23T01:42:56.832Z,0
2023-01-23T01:44:00.129Z,0
2023-01-23T01:45:03.148Z,0
2023-01-23T01:46:06.145Z,0
2023-01-23T01:47:09.326Z,0
2023-01-23T01:48:13.729Z,0
2023-01-23T01:49:16.851Z,0
2023-01-23T01:50:20.314Z,0
2023-01-23T01:51:24.139Z,0
2023-01-23T01:52:27.476Z,0
2023-01-23T01:53:30.164Z,0
2023-01-23T01:54:33.490Z,0
2023-01-23T01:55:36.864Z,0
2023-01-23T01:56:39.315Z,0
2023-01-23T01:57:41.736Z,0
2023-01-23T01:58:45.079Z,0
2023-01-23T01:59:47.508Z,0
2023-01-23T02:00:51.300Z,0
2023-01-23T02:01:54.847Z,0
2023-01-23T02:02:57.872Z,0
2023-01-23T02:04:02.050Z,0
2023-01-23T02:05:05.610Z,0
2023-01-23T02:06:09.136Z,0
2023-01-23T02:07:12.549Z,0
2023-01-23T02:08:16.169Z,0
2023-01-23T02:09:18.891Z,0
2023-01-23T02:10:22.037Z,0
2023-01-23T02:11:25.271Z,0
2023-01-23T02:12:28.368Z,0
2023-01-23T02:13:31.109Z,0
2023-01-23T02:14:35.190Z,0
2023-01-23T02:15:38.647Z,0
2023-01-23T02:16:41.823Z,0
2023-01-23T02:17:45.065Z,0
2023-01-23T02:18:47.580Z,0
2023-01-23T02:19:51.586Z,0
2023-01-23T02:20:54.559Z,0
2023-01-23T02:21:58.165Z,0
2023-01-23T02:23:00.747Z,0
2023-01-23T02:24:04.726Z,0
2023-01-23T02:25:08.104Z,0
2023-01-23T02:26:10.847Z,0
2023-01-23T02:27:13.584Z,0
2023-01-23T02:28:16.367Z,0
2023-01-23T02:29:19.069Z,0
2023-01-23T02:30:22.689Z,0
2023-01-23T02:31:25.815Z,0
2023-01-23T02:32:29.884Z,0
2023-01-23T02:33:32.677Z,0
2023-01-23T02:34:35.901Z,0
2023-01-23T02:35:40.029Z,0
2023-01-23T02:36:43.256Z,0
2023-01-23T02:37:47.390Z,0
2023-01-23T02:38:50.297Z,0
2023-01-23T02:39:53.966Z,0
2023-01-23T02:40:57.670Z,0
2023-01-23T02:42:01.364Z,0
2023-01-23T02:43:03.811Z,0
2023-01-23T02:44:06.547Z,0
2023-01-23T02:45:09.620Z,0
2023-01-23T02:46:13.094Z,0
2023-01-23T02:47:16.460Z,0
2023-01-23T02:48:19.558Z,0
2023-01-23T02:49:23.285Z,0
2023-01-23T02:50:25.889Z,0
2023-01-23T02:51:30.004Z,0
2023-01-23T02:52:32.986Z,0
2023-01-23T02:53:36.856Z,0
2023-01-23T02:54:39.750Z,0
2023-01-23T02:55:42.769Z,0
2023-01-23T02:56:45.855Z,0
2023-01-23T02:57:49.525Z,0
2023-01-23T02:58:51.401Z,0
2023-01-23T02:59:54.406Z,0
2023-01-23T03:00:57.177Z,0
2023-01-23T03:02:00.766Z,0
2023-01-23T03:03:04.519Z,0
2023-01-23T03:04:07.609Z,0
2023-01-23T03:05:11.226Z,0
2023-01-23T03:06:14.571Z,0
2023-01-23T03:07:18.655Z,0
2023-01-23T03:08:21.878Z,0
2023-01-23T03:09:25.367Z,0
2023-01-23T03:10:28.569Z,0
2023-01-23T03:11:32.463Z,0
2023-01-23T03:12:35.015Z,0
2023-01-23T03:13:38.387Z,0
2023-01-23T03:14:41.197Z,0
2023-01-23T03:15:44.194Z,0
2023-01-23T03:16:47.250Z,0
2023-01-23T03:17:50.147Z,0
2023-01-23T03:18:54.521Z,0
2023-01-23T03:19:58.643Z,0
2023-01-23T03:21:01.835Z,0
2023-01-23T03:22:05.878Z,0
2023-01-23T03:23:10.054Z,0
2023-01-23T03:24:13.251Z,0
2023-01-23T03:25:17.116Z,0
2023-01-23T03:26:20.556Z,0
2023-01-23T03:27:24.234Z,0
2023-01-23T03:28:27.233Z,0
2023-01-23T03:29:30.028Z,0
2023-01-23T03:30:33.775Z,0
2023-01-23T03:31:36.956Z,0
2023-01-23T03:32:40.160Z,0
2023-01-23T03:33:42.317Z,0
2023-01-23T03:34:44.477Z,0
2023-01-23T03:35:47.570Z,0
2023-01-23T03:36:50.314Z,0
2023-01-23T03:37:53.649Z,0
2023-01-23T03:38:57.473Z,0
2023-01-23T03:40:00.871Z,0
2023-01-23T03:41:04.217Z,0
2023-01-23T03:42:07.391Z,0
2023-01-23T03:43:10.124Z,0
2023-01-23T03:44:13.529Z,0
2023-01-23T03:45:16.339Z,0
2023-01-23T03:46:19.957Z,0
2023-01-23T03:47:23.409Z,0
2023-01-23T03:48:26.867Z,0
2023-01-23T03:49:29.883Z,0
2023-01-23T03:50:32.954Z,0
2023-01-23T03:51:35.995Z,0
2023-01-23T03:52:39.406Z,0
2023-01-23T03:53:42.471Z,0
2023-01-23T03:54:46.205Z,0
2023-01-23T03:55:48.878Z,0
2023-01-23T03:56:53.035Z,0
2023-01-23T03:57:56.385Z,0
2023-01-23T03:58:59.873Z,0
2023-01-23T04:00:02.690Z,0
2023-01-23T04:01:06.077Z,0
2023-01-23T04:02:08.873Z,0
2023-01-23T04:03:12.135Z,0
2023-01-23T04:04:15.509Z,0
2023-01-23T04:05:18.341Z,0
2023-01-23T04:06:21.811Z,0
2023-01-23T04:07:24.810Z,0
2023-01-23T04:08:28.088Z,0
2023-01-23T04:09:31.467Z,0
2023-01-23T04:10:35.608Z,0
2023-01-23T04:11:39.296Z,0
2023-01-23T04:12:42.868Z,0
2023-01-23T04:13:46.298Z,0
2023-01-23T04:14:49.707Z,0
2023-01-23T04:15:52.766Z,0
2023-01-23T04:16:55.539Z,0
2023-01-23T04:17:58.007Z,0
2023-01-23T04:19:01.670Z,0
2023-01-23T04:20:04.520Z,0
2023-01-23T04:21:07.603Z,0
2023-01-23T04:22:11.611Z,0
2023-01-23T04:23:14.677Z,0
2023-01-23T04:24:18.119Z,0
2023-01-23T04:25:20.997Z,0
2023-01-23T04:26:25.063Z,0
2023-01-23T04:27:28.072Z,0
2023-01-23T04:28:31.556Z,0
2023-01-23T04:29:34.968Z,0
2023-01-23T04:30:38.327Z,0
2023-01-23T04:31:42.116Z,0
2023-01-23T04:32:45.471Z,0
2023-01-23T04:33:48.280Z,0
2023-01-23T04:34:51.774Z,0
2023-01-23T04:35:54.866Z,0
2023-01-23T04:36:57.931Z,0
2023-01-23T04:38:01.271Z,0
2023-01-23T04:39:04.207Z,0
2023-01-23T04:40:06.714Z,0
2023-01-23T04:41:09.505Z,0
2023-01-23T04:42:13.904Z,0
2023-01-23T04:43:17.364Z,0
2023-01-23T04:44:20.956Z,0
2023-01-23T04:45:23.928Z,0
2023-01-23T04:46:27.897Z,0
2023-01-23T04:47:31.351Z,0
2023-01-23T04:48:34.397Z,0
2023-01-23T04:49:36.911Z,0
2023-01-23T04:50:39.895Z,0
2023-01-23T04:51:42.488Z,0
2023-01-23T04:52:45.935Z,0
2023-01-23T04:53:49.015Z,0
2023-01-23T04:54:51.770Z,0
2023-01-23T04:55:55.147Z,0
2023-01-23T04:56:58.289Z,0
2023-01-23T04:58:01.997Z,0
2023-01-23T04:59:05.182Z,0
2023-01-23T05:00:08.706Z,0
2023-01-23T05:01:11.904Z,0
2023-01-23T05:02:15.402Z,0
2023-01-23T05:03:18.792Z,0
2023-01-23T05:04:21.817Z,0
2023-01-23T05:05:25.119Z,0
2023-01-23T05:06:28.113Z,0
2023-01-23T05:07:31.565Z,0
2023-01-23T05:08:35.550Z,0
2023-01-23T05:09:38.551Z,0
2023-01-23T05:10:41.049Z,0
2023-01-23T05:11:43.580Z,0
2023-01-23T05:12:46.585Z,0
2023-01-23T05:13:50.540Z,0
2023-01-23T05:14:53.741Z,0
2023-01-23T05:15:57.495Z,0
2023-01-23T05:17:00.986Z,0
2023-01-23T05:18:04.343Z,0
2023-01-23T05:19:07.811Z,0
2023-01-23T05:20:10.803Z,0
2023-01-23T05:21:14.060Z,0
2023-01-23T05:22:17.123Z,0
2023-01-23T05:23:19.926Z,0
2023-01-23T05:24:23.643Z,0
2023-01-23T05:25:27.297Z,0
2023-01-23T05:26:30.673Z,0
2023-01-23T05:27:34.268Z,0
2023-01-23T05:28:37.242Z,0
2023-01-23T05:29:41.585Z,0
2023-01-23T05:30:44.652Z,0
2023-01-23T05:31:49.084Z,0
2023-01-23T05:32:52.949Z,0
2023-01-23T05:33:56.244Z,0
2023-01-23T05:34:59.266Z,0
2023-01-23T05:36:02.606Z,0
2023-01-23T05:37:04.843Z,0
2023-01-23T05:38:07.850Z,0
2023-01-23T05:39:10.642Z,0
2023-01-23T05:40:14.289Z,0
2023-01-23T05:41:17.417Z,0
2023-01-23T05:42:21.080Z,0
2023-01-23T05:43:24.161Z,0
2023-01-23T05:44:27.027Z,0
2023-01-23T05:45:31.253Z,0
2023-01-23T05:46:34.558Z,0
2023-01-23T05:47:38.287Z,0
2023-01-23T05:48:41.110Z,0
2023-01-23T05:49:44.998Z,0
2023-01-23T05:50:48.585Z,0
2023-01-23T05:51:51.978Z,0
2023-01-23T05:52:55.044Z,0
2023-01-23T05:53:58.045Z,0
2023-01-23T05:55:01.499Z,0
2023-01-23T05:56:04.618Z,0
2023-01-23T05:57:07.819Z,0
2023-01-23T05:58:11.287Z,0
2023-01-23T05:59:17.894Z,0
2023-01-23T06:00:20.677Z,0
2023-01-23T06:01:26.051Z,0
2023-01-23T06:02:28.904Z,0
2023-01-23T06:03:32.964Z,0
2023-01-23T06:04:37.058Z,0
2023-01-23T06:05:40.739Z,0
2023-01-23T06:06:43.886Z,0
2023-01-23T06:07:46.684Z,0
2023-01-23T06:08:49.768Z,0
2023-01-23T06:09:52.971Z,0
2023-01-23T06:10:55.809Z,0
2023-01-23T06:11:58.866Z,0
2023-01-23T06:13:01.942Z,0
2023-01-23T06:14:04.722Z,0
2023-01-23T06:15:08.105Z,0
2023-01-23T06:16:11.011Z,0
2023-01-23T06:17:15.641Z,0
2023-01-23T06:18:18.567Z,0
2023-01-23T06:19:22.349Z,0
2023-01-23T06:20:25.767Z,0
2023-01-23T06:21:29.210Z,0
2023-01-23T06:22:32.835Z,0
2023-01-23T06:23:35.930Z,0
2023-01-23T06:24:39.415Z,0
2023-01-23T06:25:42.776Z,0
2023-01-23T06:26:45.328Z,0
2023-01-23T06:27:48.668Z,0
2023-01-23T06:28:51.463Z,0
2023-01-23T06:29:54.553Z,0
2023-01-23T06:30:57.616Z,0
2023-01-23T06:32:01.409Z,0
2023-01-23T06:33:05.133Z,0
2023-01-23T06:34:08.662Z,0
2023-01-23T06:35:12.233Z,0
2023-01-23T06:36:15.987Z,0
2023-01-23T06:37:19.116Z,0
2023-01-23T06:38:22.101Z,0
2023-01-23T06:39:24.544Z,4
2023-01-23T06:40:27.726Z,4
2023-01-23T06:41:30.723Z,0
2023-01-23T06:42:33.793Z,0
2023-01-23T06:43:37.125Z,0
2023-01-23T06:44:40.551Z,4
2023-01-23T06:45:43.337Z,4
2023-01-23T06:46:45.889Z,4
2023-01-23T06:47:49.720Z,4
2023-01-23T06:48:53.274Z,4
2023-01-23T06:49:57.108Z,4
2023-01-23T06:51:01.404Z,4
2023-01-23T06:52:05.249Z,4
2023-01-23T06:53:08.362Z,8
2023-01-23T06:54:11.463Z,4
2023-01-23T06:55:14.664Z,8
2023-01-23T06:56:18.543Z,12
2023-01-23T06:57:21.930Z,12
2023-01-23T06:58:25.393Z,16
2023-01-23T06:59:28.488Z,16
2023-01-23T07:00:30.982Z,20
2023-01-23T07:01:33.789Z,24
2023-01-23T07:02:37.559Z,28
2023-01-23T07:03:41.239Z,32
2023-01-23T07:04:45.200Z,36
2023-01-23T07:05:48.593Z,36
2023-01-23T07:06:52.157Z,40
2023-01-23T07:07:55.339Z,40
2023-01-23T07:08:58.647Z,48
2023-01-23T07:10:02.418Z,52
2023-01-23T07:11:05.855Z,56
2023-01-23T07:12:09.204Z,60
2023-01-23T07:13:12.352Z,56
2023-01-23T07:14:15.453Z,64
2023-01-23T07:15:18.476Z,76
2023-01-23T07:16:21.881Z,92
2023-01-23T07:17:25.566Z,100
2023-01-23T07:18:28.075Z,104
2023-01-23T07:19:31.448Z,108
2023-01-23T07:20:34.947Z,124
2023-01-23T07:21:38.512Z,140
2023-01-23T07:22:42.024Z,140
2023-01-23T07:23:45.955Z,152
2023-01-23T07:24:49.656Z,172
2023-01-23T07:25:52.860Z,172
2023-01-23T07:26:55.323Z,172
2023-01-23T07:27:58.417Z,176
2023-01-23T07:29:01.469Z,176
2023-01-23T07:30:05.118Z,200
2023-01-23T07:31:08.391Z,228
2023-01-23T07:32:12.461Z,236
2023-01-23T07:33:15.347Z,236
2023-01-23T07:34:17.800Z,252
2023-01-23T07:35:20.785Z,264
2023-01-23T07:36:24.766Z,304
2023-01-23T07:37:27.885Z,324
2023-01-23T07:38:31.699Z,324
2023-01-23T07:39:35.467Z,316
2023-01-23T07:40:39.154Z,324
2023-01-23T07:41:43.867Z,352
2023-01-23T07:42:49.412Z,368
2023-01-23T07:43:52.257Z,392
2023-01-23T07:44:55.256Z,420
2023-01-23T07:45:58.121Z,448
2023-01-23T07:47:01.232Z,484
2023-01-23T07:48:04.356Z,496
2023-01-23T07:49:07.637Z,484
2023-01-23T07:50:11.271Z,496
2023-01-23T07:51:14.680Z,524
2023-01-23T07:52:19.188Z,504
2023-01-23T07:53:22.318Z,540
2023-01-23T07:54:25.803Z,588
2023-01-23T07:55:29.329Z,632
2023-01-23T07:56:32.975Z,676
2023-01-23T07:57:36.982Z,648
2023-01-23T07:58:40.713Z,612
2023-01-23T07:59:43.579Z,608
2023-01-23T08:00:46.942Z,616
2023-01-23T08:01:50.499Z,636
2023-01-23T08:02:54.187Z,632
2023-01-23T08:03:57.247Z,624
2023-01-23T08:05:01.385Z,708
2023-01-23T08:06:04.901Z,724
2023-01-23T08:07:07.411Z,768
2023-01-23T08:08:13.832Z,796
2023-01-23T08:09:17.599Z,812
2023-01-23T08:10:21.808Z,800
2023-01-23T08:11:26.076Z,768
2023-01-23T08:12:29.652Z,768
2023-01-23T08:13:32.520Z,836
2023-01-23T08:14:35.805Z,888
2023-01-23T08:15:38.983Z,896
2023-01-23T08:16:42.157Z,832
2023-01-23T08:17:45.706Z,860
2023-01-23T08:18:48.163Z,964
2023-01-23T08:19:51.879Z,1056
2023-01-23T08:20:54.735Z,1040
2023-01-23T08:21:57.448Z,1096
2023-01-23T08:23:00.882Z,1044
2023-01-23T08:24:05.126Z,916
2023-01-23T08:25:08.350Z,912
2023-01-23T08:26:11.583Z,916
2023-01-23T08:27:15.045Z,940
2023-01-23T08:28:18.657Z,960
2023-01-23T08:29:22.368Z,972
2023-01-23T08:30:25.813Z,964
2023-01-23T08:31:29.834Z,1064
2023-01-23T08:32:34.075Z,1144
2023-01-23T08:33:36.547Z,1216
2023-01-23T08:34:40.292Z,1108
2023-01-23T08:35:43.967Z,1060
2023-01-23T08:36:47.436Z,1104
2023-01-23T08:37:50.421Z,1120
2023-01-23T08:38:53.265Z,1112
2023-01-23T08:39:57.349Z,1044
2023-01-23T08:41:00.644Z,1088
2023-01-23T08:42:04.640Z,1124
2023-01-23T08:43:08.472Z,1092
2023-01-23T08:44:11.993Z,1152
2023-01-23T08:45:15.075Z,1288
2023-01-23T08:46:18.802Z,1348
2023-01-23T08:47:21.515Z,1328
2023-01-23T08:48:25.041Z,1316
2023-01-23T08:49:28.360Z,1436
2023-01-23T08:50:31.778Z,1608
2023-01-23T08:51:35.050Z,1648
2023-01-23T08:52:38.833Z,1544
2023-01-23T08:53:42.199Z,1496
2023-01-23T08:54:45.238Z,1628
2023-01-23T08:55:48.987Z,1704
2023-01-23T08:56:52.750Z,1640
2023-01-23T08:57:56.042Z,1640
2023-01-23T08:58:59.793Z,1892
2023-01-23T09:00:03.421Z,2080
2023-01-23T09:01:06.932Z,2016
2023-01-23T09:02:11.065Z,1848
2023-01-23T09:03:14.586Z,1728
2023-01-23T09:04:18.044Z,1696
2023-01-23T09:05:21.313Z,1796
2023-01-23T09:06:24.381Z,2144
2023-01-23T09:07:28.064Z,2128
2023-01-23T09:08:31.448Z,2012
2023-01-23T09:09:37.544Z,2048
2023-01-23T09:10:40.920Z,2324
2023-01-23T09:11:44.616Z,2400
2023-01-23T09:12:47.724Z,2272
2023-01-23T09:13:53.724Z,2308
2023-01-23T09:14:56.899Z,2436
2023-01-23T09:15:59.950Z,2316
2023-01-23T09:17:03.668Z,2232
2023-01-23T09:18:07.041Z,2128
2023-01-23T09:19:10.062Z,2144
2023-01-23T09:20:13.846Z,2112
2023-01-23T09:21:17.317Z,2164
2023-01-23T09:22:20.957Z,2320
2023-01-23T09:23:24.043Z,2220
2023-01-23T09:24:27.699Z,2092
2023-01-23T09:25:31.503Z,2148
2023-01-23T09:26:34.659Z,2264
2023-01-23T09:27:38.338Z,2500
2023-01-23T09:28:41.664Z,2332
2023-01-23T09:29:45.755Z,2268
2023-01-23T09:30:48.997Z,2264
2023-01-23T09:31:52.723Z,2432
2023-01-23T09:32:56.104Z,2624
2023-01-23T09:33:58.830Z,2412
2023-01-23T09:35:01.879Z,2228
2023-01-23T09:36:05.071Z,2464
2023-01-23T09:37:08.731Z,2608
2023-01-23T09:38:11.942Z,2712
2023-01-23T09:39:15.310Z,2872
2023-01-23T09:40:19.577Z,2956
2023-01-23T09:41:24.554Z,3100
2023-01-23T09:42:27.644Z,3244
2023-01-23T09:43:32.137Z,3284
2023-01-23T09:44:35.741Z,3108
2023-01-23T09:45:39.396Z,3032
2023-01-23T09:46:42.657Z,3204
2023-01-23T09:47:46.897Z,3048
2023-01-23T09:48:50.359Z,3028
2023-01-23T09:49:53.186Z,3136
2023-01-23T09:50:56.686Z,2924
2023-01-23T09:51:59.992Z,2808
2023-01-23T09:53:03.098Z,2800
2023-01-23T09:54:06.733Z,2716
2023-01-23T09:55:10.256Z,2760
2023-01-23T09:56:13.069Z,2812
2023-01-23T09:57:16.559Z,2740
2023-01-23T09:58:19.584Z,2824
2023-01-23T09:59:23.476Z,3184
2023-01-23T10:00:27.039Z,3404
2023-01-23T10:01:30.659Z,3352
2023-01-23T10:02:34.384Z,2932
2023-01-23T10:03:37.933Z,2628
2023-01-23T10:04:41.677Z,2916
2023-01-23T10:05:45.120Z,3008
2023-01-23T10:06:48.469Z,2900
2023-01-23T10:07:51.831Z,2952
2023-01-23T10:08:55.194Z,2972
2023-01-23T10:10:00.524Z,2916
2023-01-23T10:11:05.257Z,2968
2023-01-23T10:12:08.609Z,3020
2023-01-23T10:13:11.684Z,2944
2023-01-23T10:14:19.275Z,2928
2023-01-23T10:15:23.081Z,3052
2023-01-23T10:16:29.680Z,3112
2023-01-23T10:17:54.747Z,2956
2023-01-23T10:19:01.127Z,2756
2023-01-23T10:20:04.254Z,2636
2023-01-23T10:21:07.918Z,2676
2023-01-23T10:22:19.696Z,2676
2023-01-23T10:23:26.514Z,2808
2023-01-23T10:24:29.339Z,2956
2023-01-23T10:25:42.599Z,3196
2023-01-23T10:26:45.880Z,3248
2023-01-23T10:27:49.181Z,3096
2023-01-23T10:28:53.208Z,3216
2023-01-23T10:29:56.945Z,3596
2023-01-23T10:31:01.451Z,3876
2023-01-23T10:32:05.301Z,3848
2023-01-23T10:33:08.145Z,3904
2023-01-23T10:34:12.063Z,3592
2023-01-23T10:35:15.351Z,3204
2023-01-23T10:36:21.597Z,2912
2023-01-23T10:37:55.977Z,2812
2023-01-23T10:38:59.393Z,2788
2023-01-23T10:40:02.825Z,2700
2023-01-23T10:41:05.277Z,2648
2023-01-23T10:42:07.997Z,2548
2023-01-23T10:43:11.722Z,2356
2023-01-23T10:44:14.800Z,2240
2023-01-23T10:45:18.639Z,2284
2023-01-23T10:46:24.770Z,2508
2023-01-23T10:47:32.752Z,2748
2023-01-23T10:48:46.435Z,3068
2023-01-23T10:49:50.776Z,3072
2023-01-23T10:50:53.703Z,3244
2023-01-23T10:51:56.677Z,3672
2023-01-23T10:53:00.482Z,4056
2023-01-23T10:54:06.103Z,4332
2023-01-23T10:55:34.436Z,4764
2023-01-23T10:56:37.944Z,4764
2023-01-23T10:57:40.941Z,4604
2023-01-23T10:58:46.644Z,4104
2023-01-23T10:59:50.014Z,3900
2023-01-23T11:00:53.709Z,3900
2023-01-23T11:01:58.131Z,3912
2023-01-23T11:03:02.753Z,3660
2023-01-23T11:04:06.754Z,3556
2023-01-23T11:05:10.376Z,3612
2023-01-23T11:06:14.385Z,3512
2023-01-23T11:07:18.034Z,3508
2023-01-23T11:08:20.237Z,3576
2023-01-23T11:09:23.035Z,3616
2023-01-23T11:10:26.103Z,3608
2023-01-23T11:11:29.377Z,3672
2023-01-23T11:12:32.009Z,3728
2023-01-23T11:13:35.396Z,3680
2023-01-23T11:14:39.414Z,3848
2023-01-23T11:15:43.272Z,3788
2023-01-23T11:16:47.063Z,3724
2023-01-23T11:17:51.135Z,4004
2023-01-23T11:18:54.399Z,4452
2023-01-23T11:19:57.497Z,4408
2023-01-23T11:21:01.516Z,4220
2023-01-23T11:22:05.234Z,4420
2023-01-23T11:23:07.956Z,4556
2023-01-23T11:24:11.172Z,4552
2023-01-23T11:25:14.533Z,4620
2023-01-23T11:26:17.879Z,4476
2023-01-23T11:27:20.899Z,4288
2023-01-23T11:28:24.299Z,4300
2023-01-23T11:29:27.041Z,4360
2023-01-23T11:30:30.161Z,4480
2023-01-23T11:31:34.191Z,4616
2023-01-23T11:32:39.056Z,4532
2023-01-23T11:33:42.750Z,4496
2023-01-23T11:34:46.876Z,4496
2023-01-23T11:35:51.299Z,4576
2023-01-23T11:36:55.113Z,4648
2023-01-23T11:37:58.256Z,4764
2023-01-23T11:39:01.877Z,4744
2023-01-23T11:40:05.842Z,4316
2023-01-23T11:41:08.912Z,3992
2023-01-23T11:42:12.047Z,4144
2023-01-23T11:43:15.471Z,4404
2023-01-23T11:44:18.556Z,4612
2023-01-23T11:45:47.391Z,4532
2023-01-23T11:46:50.367Z,4372
2023-01-23T11:47:53.411Z,4448
2023-01-23T11:48:57.560Z,4796
2023-01-23T11:50:01.158Z,4968
2023-01-23T11:51:05.160Z,5016
2023-01-23T11:52:08.788Z,4928
2023-01-23T11:53:12.319Z,4752
2023-01-23T11:54:16.223Z,4636
2023-01-23T11:55:20.532Z,4664
2023-01-23T11:56:25.182Z,4764
2023-01-23T11:57:28.540Z,4696
2023-01-23T11:58:32.077Z,4628
2023-01-23T11:59:52.567Z,4468
2023-01-23T12:00:55.343Z,4832
2023-01-23T12:02:03.305Z,4980
2023-01-23T12:03:08.397Z,5004
2023-01-23T12:04:12.461Z,4940
2023-01-23T12:05:16.356Z,4960
2023-01-23T12:06:20.660Z,4892
2023-01-23T12:07:24.274Z,5004
2023-01-23T12:08:27.746Z,5064
2023-01-23T12:09:30.703Z,5104
2023-01-23T12:10:33.155Z,5128
2023-01-23T12:11:36.456Z,5100
2023-01-23T12:12:39.831Z,4964
2023-01-23T12:13:43.279Z,4776
2023-01-23T12:14:47.042Z,4604
2023-01-23T12:15:50.593Z,4412
2023-01-23T12:16:54.355Z,4360
2023-01-23T12:17:57.810Z,4340
2023-01-23T12:19:01.458Z,4356
2023-01-23T12:20:05.405Z,4208
2023-01-23T12:21:08.637Z,4020
2023-01-23T12:22:12.006Z,3968
2023-01-23T12:23:15.619Z,3960
2023-01-23T12:24:19.162Z,3864
2023-01-23T12:25:23.060Z,3956
2023-01-23T12:26:26.566Z,4152
2023-01-23T12:27:29.114Z,4228
2023-01-23T12:28:32.602Z,4332
2023-01-23T12:29:35.982Z,4428
2023-01-23T12:30:39.092Z,4420
2023-01-23T12:31:42.550Z,4344
2023-01-23T12:32:46.967Z,4204
2023-01-23T12:33:50.118Z,3952
2023-01-23T12:34:52.843Z,3844
2023-01-23T12:35:56.761Z,3768
2023-01-23T12:37:10.124Z,3548
2023-01-23T12:38:34.582Z,3348
2023-01-23T12:39:38.046Z,3324
2023-01-23T12:40:41.680Z,3308
2023-01-23T12:41:45.317Z,3204
2023-01-23T12:42:48.323Z,3024
2023-01-23T12:43:53.051Z,2972
2023-01-23T12:44:58.279Z,2952
2023-01-23T12:46:01.418Z,2984
2023-01-23T12:47:04.656Z,2960
2023-01-23T12:48:08.016Z,2900
2023-01-23T12:49:11.846Z,2872
2023-01-23T12:50:14.839Z,2960
2023-01-23T12:51:19.831Z,3080
2023-01-23T12:52:23.322Z,3156
2023-01-23T12:53:26.571Z,3180
2023-01-23T12:54:30.472Z,3192
2023-01-23T12:55:33.562Z,3204
2023-01-23T12:56:36.736Z,3204
2023-01-23T12:57:46.284Z,3220
2023-01-23T12:59:12.563Z,3220
2023-01-23T13:00:15.811Z,3148
2023-01-23T13:01:18.293Z,3020
2023-01-23T13:02:22.288Z,2808
2023-01-23T13:03:29.059Z,2632
2023-01-23T13:04:50.012Z,2496
2023-01-23T13:05:53.383Z,2420
2023-01-23T13:06:57.516Z,2268
2023-01-23T13:08:00.778Z,2096
2023-01-23T13:09:12.895Z,2072
2023-01-23T13:10:23.263Z,2056
2023-01-23T13:11:27.541Z,2120
2023-01-23T13:12:30.678Z,2244
2023-01-23T13:13:33.556Z,2340
2023-01-23T13:14:58.005Z,2380
2023-01-23T13:16:43.553Z,2452
2023-01-23T13:17:46.936Z,2424
2023-01-23T13:18:50.146Z,2364
2023-01-23T13:19:53.546Z,2300
2023-01-23T13:20:56.920Z,2168
2023-01-23T13:22:02.986Z,1960
2023-01-23T13:23:31.255Z,1756
2023-01-23T13:24:34.746Z,1764
2023-01-23T13:25:39.226Z,1844
2023-01-23T13:26:42.301Z,1904
2023-01-23T13:27:45.753Z,1940
2023-01-23T13:28:49.361Z,1964
2023-01-23T13:29:52.567Z,1940
2023-01-23T13:30:56.580Z,1884
2023-01-23T13:32:00.547Z,1884
2023-01-23T13:33:04.337Z,1940
2023-01-23T13:34:15.562Z,1968
2023-01-23T13:35:20.189Z,1936
2023-01-23T13:36:25.192Z,1896
2023-01-23T13:37:28.874Z,1880
2023-01-23T13:38:32.250Z,1912
2023-01-23T13:39:37.566Z,1960
2023-01-23T13:40:49.125Z,2000
2023-01-23T13:41:52.752Z,2020
2023-01-23T13:42:56.110Z,2020
2023-01-23T13:44:00.119Z,2004
2023-01-23T13:45:03.666Z,1980
2023-01-23T13:46:07.060Z,1948
2023-01-23T13:47:10.435Z,1908
2023-01-23T13:48:13.809Z,1860
2023-01-23T13:49:16.705Z,1820
2023-01-23T13:50:20.436Z,1788
2023-01-23T13:51:24.071Z,1772
2023-01-23T13:52:26.586Z,1772
2023-01-23T13:53:30.315Z,1764
2023-01-23T13:54:33.307Z,1744
2023-01-23T13:55:36.616Z,1728
2023-01-23T13:56:40.735Z,1720
2023-01-23T13:57:44.737Z,1712
2023-01-23T13:58:47.811Z,1704
2023-01-23T13:59:51.424Z,1692
2023-01-23T14:00:54.146Z,1664
2023-01-23T14:01:57.799Z,1640
2023-01-23T14:03:01.530Z,1624
2023-01-23T14:04:05.371Z,1620
2023-01-23T14:05:08.259Z,1612
2023-01-23T14:06:11.581Z,1580
2023-01-23T14:07:15.576Z,1540
2023-01-23T14:08:18.965Z,1496
2023-01-23T14:09:22.134Z,1464
2023-01-23T14:10:25.424Z,1440
2023-01-23T14:11:28.527Z,1424
2023-01-23T14:12:32.682Z,1408
2023-01-23T14:13:35.134Z,1380
2023-01-23T14:14:37.707Z,1356
2023-01-23T14:15:41.049Z,1340
2023-01-23T14:16:44.427Z,1340
2023-01-23T14:17:47.936Z,1336
2023-01-23T14:18:51.585Z,1332
2023-01-23T14:19:54.610Z,1320
2023-01-23T14:20:57.674Z,1300
2023-01-23T14:22:00.762Z,1280
2023-01-23T14:23:04.253Z,1256
2023-01-23T14:24:07.596Z,1224
2023-01-23T14:25:11.486Z,1192
2023-01-23T14:26:14.235Z,1164
2023-01-23T14:27:21.473Z,1144
2023-01-23T14:28:55.519Z,1140
2023-01-23T14:29:59.193Z,1132
2023-01-23T14:31:02.002Z,1128
2023-01-23T14:32:06.254Z,1116
2023-01-23T14:33:10.161Z,1100
2023-01-23T14:34:17.745Z,1080
2023-01-23T14:35:22.209Z,1056
2023-01-23T14:36:26.932Z,1032
2023-01-23T14:37:30.334Z,1008
2023-01-23T14:38:34.010Z,992
2023-01-23T14:39:37.863Z,984
2023-01-23T14:41:04.712Z,1008
2023-01-23T14:42:11.515Z,1028
2023-01-23T14:43:26.382Z,1040
2023-01-23T14:44:30.732Z,1040
2023-01-23T14:45:34.217Z,1036
2023-01-23T14:46:37.958Z,1016
2023-01-23T14:47:42.466Z,988
2023-01-23T14:49:09.353Z,948
2023-01-23T14:50:12.713Z,916
2023-01-23T14:51:17.944Z,892
2023-01-23T14:52:23.136Z,860
2023-01-23T14:53:26.409Z,836
2023-01-23T14:54:32.822Z,812
2023-01-23T14:55:55.880Z,784
2023-01-23T14:57:00.307Z,768
2023-01-23T14:58:04.065Z,756